sensor_id;sensor_type;location;lat;lon;timestamp;temperature;humidity
15556;DHT22;7879;48.660;9.116;2023-05-02T00:00:03;8.30;99.90
15556;DHT22;7879;48.660;9.116;2023-05-02T00:02:30;8.30;99.90
15556;DHT22;7879;48.660;9.116;2023-05-02T00:04:57;8.30;99.90
15556;DHT22;7879;48.660;9.116;2023-05-02T00:07:24;8.20;99.90
15556;DHT22;7879;48.660;9.116;2023-05-02T00:09:52;8.20;99.90
15556;DHT22;7879;48.660;9.116;2023-05-02T00:12:19;8.20;99.90
15556;DHT22;7879;48.660;9.116;2023-05-02T00:14:46;8.20;99.90
15556;DHT22;7879;48.660;9.116;2023-05-02T00:17:16;8.10;99.90
15556;DHT22;7879;48.660;9.116;2023-05-02T00:19:44;8.10;99.90
15556;DHT22;7879;48.660;9.116;2023-05-02T00:22:11;8.10;99.90
15556;DHT22;7879;48.660;9.116;2023-05-02T00:24:38;8.00;99.90
15556;DHT22;7879;48.660;9.116;2023-05-02T00:27:05;7.90;99.90
15556;DHT22;7879;48.660;9.116;2023-05-02T00:29:32;8.00;99.90
15556;DHT22;7879;48.660;9.116;2023-05-02T00:31:59;7.90;99.90
15556;DHT22;7879;48.660;9.116;2023-05-02T00:34:29;7.80;99.90
15556;DHT22;7879;48.660;9.116;2023-05-02T00:36:57;7.80;99.90
15556;DHT22;7879;48.660;9.116;2023-05-02T00:39:24;7.70;99.90
15556;DHT22;7879;48.660;9.116;2023-05-02T00:41:57;7.70;99.90
15556;DHT22;7879;48.660;9.116;2023-05-02T00:44:24;7.70;99.90
15556;DHT22;7879;48.660;9.116;2023-05-02T00:46:52;7.70;99.90
15556;DHT22;7879;48.660;9.116;2023-05-02T00:49:19;7.70;99.90
15556;DHT22;7879;48.660;9.116;2023-05-02T00:51:45;7.70;99.90
15556;DHT22;7879;48.660;9.116;2023-05-02T00:54:13;7.70;99.90
15556;DHT22;7879;48.660;9.116;2023-05-02T00:56:40;7.60;99.90
15556;DHT22;7879;48.660;9.116;2023-05-02T00:59:09;7.60;99.90
15556;DHT22;7879;48.660;9.116;2023-05-02T01:09:51;7.40;99.90
15556;DHT22;7879;48.660;9.116;2023-05-02T01:12:27;7.40;99.90
15556;DHT22;7879;48.660;9.116;2023-05-02T01:14:58;7.40;99.90
15556;DHT22;7879;48.660;9.116;2023-05-02T01:17:29;7.30;99.90
15556;DHT22;7879;48.660;9.116;2023-05-02T01:20:01;7.30;99.90
15556;DHT22;7879;48.660;9.116;2023-05-02T01:22:29;7.20;99.90
15556;DHT22;7879;48.660;9.116;2023-05-02T01:25:02;7.30;99.90
15556;DHT22;7879;48.660;9.116;2023-05-02T01:27:39;7.30;99.90
15556;DHT22;7879;48.660;9.116;2023-05-02T01:30:11;7.40;99.90
15556;DHT22;7879;48.660;9.116;2023-05-02T01:32:40;7.30;99.90
15556;DHT22;7879;48.660;9.116;2023-05-02T01:35:13;7.20;99.90
15556;DHT22;7879;48.660;9.116;2023-05-02T01:37:44;7.20;99.90
15556;DHT22;7879;48.660;9.116;2023-05-02T01:40:14;7.20;99.90
15556;DHT22;7879;48.660;9.116;2023-05-02T01:42:43;7.20;99.90
15556;DHT22;7879;48.660;9.116;2023-05-02T01:45:13;7.20;99.90
15556;DHT22;7879;48.660;9.116;2023-05-02T01:47:42;7.30;99.90
15556;DHT22;7879;48.660;9.116;2023-05-02T01:50:16;7.30;99.90
15556;DHT22;7879;48.660;9.116;2023-05-02T01:52:46;7.20;99.90
15556;DHT22;7879;48.660;9.116;2023-05-02T01:55:16;7.20;99.90
15556;DHT22;7879;48.660;9.116;2023-05-02T01:57:46;7.20;99.90
15556;DHT22;7879;48.660;9.116;2023-05-02T02:00:15;7.10;99.90
15556;DHT22;7879;48.660;9.116;2023-05-02T02:02:44;7.10;99.90
15556;DHT22;7879;48.660;9.116;2023-05-02T02:05:13;7.10;99.90
15556;DHT22;7879;48.660;9.116;2023-05-02T02:07:40;7.10;99.90
15556;DHT22;7879;48.660;9.116;2023-05-02T02:10:08;6.90;99.90
15556;DHT22;7879;48.660;9.116;2023-05-02T02:12:42;6.90;99.90
15556;DHT22;7879;48.660;9.116;2023-05-02T02:15:19;6.90;99.90
15556;DHT22;7879;48.660;9.116;2023-05-02T02:18:01;6.90;99.90
15556;DHT22;7879;48.660;9.116;2023-05-02T02:20:31;6.80;99.90
15556;DHT22;7879;48.660;9.116;2023-05-02T02:22:59;6.80;99.90
15556;DHT22;7879;48.660;9.116;2023-05-02T02:25:28;6.80;99.90
15556;DHT22;7879;48.660;9.116;2023-05-02T02:27:56;6.80;99.90
15556;DHT22;7879;48.660;9.116;2023-05-02T02:30:23;6.80;99.90
15556;DHT22;7879;48.660;9.116;2023-05-02T02:32:50;6.80;99.90
15556;DHT22;7879;48.660;9.116;2023-05-02T02:35:18;6.80;99.90
15556;DHT22;7879;48.660;9.116;2023-05-02T02:37:56;6.70;99.90
15556;DHT22;7879;48.660;9.116;2023-05-02T02:40:36;6.70;99.90
15556;DHT22;7879;48.660;9.116;2023-05-02T02:43:22;6.70;99.90
15556;DHT22;7879;48.660;9.116;2023-05-02T02:48:56;6.60;99.90
15556;DHT22;7879;48.660;9.116;2023-05-02T02:51:31;6.50;99.90
15556;DHT22;7879;48.660;9.116;2023-05-02T02:54:13;6.50;99.90
15556;DHT22;7879;48.660;9.116;2023-05-02T03:00:23;6.40;99.90
15556;DHT22;7879;48.660;9.116;2023-05-02T03:02:52;6.40;99.90
15556;DHT22;7879;48.660;9.116;2023-05-02T03:05:21;6.40;99.90
15556;DHT22;7879;48.660;9.116;2023-05-02T03:07:48;6.40;99.90
15556;DHT22;7879;48.660;9.116;2023-05-02T03:10:15;6.40;99.90
15556;DHT22;7879;48.660;9.116;2023-05-02T03:12:42;6.40;99.90
15556;DHT22;7879;48.660;9.116;2023-05-02T03:17:56;6.20;99.90
15556;DHT22;7879;48.660;9.116;2023-05-02T03:20:23;6.20;99.90
15556;DHT22;7879;48.660;9.116;2023-05-02T03:22:50;6.20;99.90
15556;DHT22;7879;48.660;9.116;2023-05-02T03:25:17;6.30;99.90
15556;DHT22;7879;48.660;9.116;2023-05-02T03:27:44;6.30;99.90
15556;DHT22;7879;48.660;9.116;2023-05-02T03:30:11;6.10;99.90
15556;DHT22;7879;48.660;9.116;2023-05-02T03:32:40;6.40;99.90
15556;DHT22;7879;48.660;9.116;2023-05-02T03:35:07;6.20;99.90
15556;DHT22;7879;48.660;9.116;2023-05-02T03:37:34;6.30;99.90
15556;DHT22;7879;48.660;9.116;2023-05-02T03:40:01;6.30;99.90
15556;DHT22;7879;48.660;9.116;2023-05-02T03:42:28;6.40;99.90
15556;DHT22;7879;48.660;9.116;2023-05-02T03:44:55;6.40;99.90
15556;DHT22;7879;48.660;9.116;2023-05-02T03:47:22;6.40;99.90
15556;DHT22;7879;48.660;9.116;2023-05-02T03:49:49;6.40;99.90
15556;DHT22;7879;48.660;9.116;2023-05-02T03:52:18;6.50;99.90
15556;DHT22;7879;48.660;9.116;2023-05-02T03:54:44;6.50;99.90
15556;DHT22;7879;48.660;9.116;2023-05-02T03:57:12;6.40;99.90
15556;DHT22;7879;48.660;9.116;2023-05-02T03:59:39;6.40;99.90
15556;DHT22;7879;48.660;9.116;2023-05-02T04:02:08;6.50;99.90
15556;DHT22;7879;48.660;9.116;2023-05-02T04:04:35;6.50;99.90
15556;DHT22;7879;48.660;9.116;2023-05-02T04:07:02;6.50;99.90
15556;DHT22;7879;48.660;9.116;2023-05-02T04:09:29;6.50;99.90
15556;DHT22;7879;48.660;9.116;2023-05-02T04:11:56;6.50;99.90
15556;DHT22;7879;48.660;9.116;2023-05-02T04:14:23;6.50;99.90
15556;DHT22;7879;48.660;9.116;2023-05-02T04:16:50;6.50;99.90
15556;DHT22;7879;48.660;9.116;2023-05-02T04:19:18;6.50;99.90
15556;DHT22;7879;48.660;9.116;2023-05-02T04:21:45;6.50;99.90
15556;DHT22;7879;48.660;9.116;2023-05-02T04:24:12;6.50;99.90
15556;DHT22;7879;48.660;9.116;2023-05-02T04:26:39;6.50;99.90
15556;DHT22;7879;48.660;9.116;2023-05-02T04:29:06;6.60;99.90
15556;DHT22;7879;48.660;9.116;2023-05-02T04:31:33;6.60;99.90
15556;DHT22;7879;48.660;9.116;2023-05-02T04:34:00;6.60;99.90
15556;DHT22;7879;48.660;9.116;2023-05-02T04:36:27;6.60;99.90
15556;DHT22;7879;48.660;9.116;2023-05-02T04:38:54;6.70;99.90
15556;DHT22;7879;48.660;9.116;2023-05-02T04:41:22;6.70;99.90
15556;DHT22;7879;48.660;9.116;2023-05-02T04:43:48;6.70;99.90
15556;DHT22;7879;48.660;9.116;2023-05-02T04:46:16;6.70;99.90
15556;DHT22;7879;48.660;9.116;2023-05-02T04:48:46;6.70;99.90
15556;DHT22;7879;48.660;9.116;2023-05-02T04:51:13;6.70;99.90
15556;DHT22;7879;48.660;9.116;2023-05-02T04:53:42;6.80;99.90
15556;DHT22;7879;48.660;9.116;2023-05-02T04:56:09;6.80;99.90
15556;DHT22;7879;48.660;9.116;2023-05-02T04:58:45;6.80;99.90
15556;DHT22;7879;48.660;9.116;2023-05-02T05:01:12;6.90;99.90
15556;DHT22;7879;48.660;9.116;2023-05-02T05:03:39;6.90;99.90
15556;DHT22;7879;48.660;9.116;2023-05-02T05:06:06;6.90;99.90
15556;DHT22;7879;48.660;9.116;2023-05-02T05:08:33;6.90;99.90
15556;DHT22;7879;48.660;9.116;2023-05-02T05:11:00;6.90;99.90
15556;DHT22;7879;48.660;9.116;2023-05-02T05:13:27;6.90;99.90
15556;DHT22;7879;48.660;9.116;2023-05-02T05:15:54;6.90;99.90
15556;DHT22;7879;48.660;9.116;2023-05-02T05:18:21;7.00;99.90
15556;DHT22;7879;48.660;9.116;2023-05-02T05:20:48;7.00;99.90
15556;DHT22;7879;48.660;9.116;2023-05-02T05:23:14;7.10;99.90
15556;DHT22;7879;48.660;9.116;2023-05-02T05:25:41;7.10;99.90
15556;DHT22;7879;48.660;9.116;2023-05-02T05:28:11;7.10;99.90
15556;DHT22;7879;48.660;9.116;2023-05-02T05:30:38;7.20;99.90
15556;DHT22;7879;48.660;9.116;2023-05-02T05:33:05;7.20;99.90
15556;DHT22;7879;48.660;9.116;2023-05-02T05:35:32;7.30;99.90
15556;DHT22;7879;48.660;9.116;2023-05-02T05:37:59;7.30;99.90
15556;DHT22;7879;48.660;9.116;2023-05-02T05:40:26;7.40;99.90
15556;DHT22;7879;48.660;9.116;2023-05-02T05:42:53;7.40;99.90
15556;DHT22;7879;48.660;9.116;2023-05-02T05:45:20;7.40;99.90
15556;DHT22;7879;48.660;9.116;2023-05-02T05:47:48;7.40;99.90
15556;DHT22;7879;48.660;9.116;2023-05-02T05:50:15;7.40;99.90
15556;DHT22;7879;48.660;9.116;2023-05-02T05:52:45;7.50;99.90
15556;DHT22;7879;48.660;9.116;2023-05-02T05:55:11;7.50;99.90
15556;DHT22;7879;48.660;9.116;2023-05-02T05:57:38;7.50;99.90
15556;DHT22;7879;48.660;9.116;2023-05-02T06:00:06;7.50;99.90
15556;DHT22;7879;48.660;9.116;2023-05-02T06:02:34;7.60;99.90
15556;DHT22;7879;48.660;9.116;2023-05-02T06:05:07;7.60;99.90
15556;DHT22;7879;48.660;9.116;2023-05-02T06:07:39;7.60;99.90
15556;DHT22;7879;48.660;9.116;2023-05-02T06:10:06;7.60;99.90
15556;DHT22;7879;48.660;9.116;2023-05-02T06:12:35;7.60;99.90
15556;DHT22;7879;48.660;9.116;2023-05-02T06:15:09;7.60;99.90
15556;DHT22;7879;48.660;9.116;2023-05-02T06:17:42;7.70;99.90
15556;DHT22;7879;48.660;9.116;2023-05-02T06:20:17;7.70;99.90
15556;DHT22;7879;48.660;9.116;2023-05-02T06:22:44;7.80;99.90
15556;DHT22;7879;48.660;9.116;2023-05-02T06:25:11;7.80;99.90
15556;DHT22;7879;48.660;9.116;2023-05-02T06:27:39;7.80;99.90
15556;DHT22;7879;48.660;9.116;2023-05-02T06:30:08;7.90;99.90
15556;DHT22;7879;48.660;9.116;2023-05-02T06:32:35;8.00;99.90
15556;DHT22;7879;48.660;9.116;2023-05-02T06:35:02;8.10;99.90
15556;DHT22;7879;48.660;9.116;2023-05-02T06:37:35;8.00;99.90
15556;DHT22;7879;48.660;9.116;2023-05-02T06:40:08;8.10;99.90
15556;DHT22;7879;48.660;9.116;2023-05-02T06:42:35;8.10;99.90
15556;DHT22;7879;48.660;9.116;2023-05-02T06:45:05;8.20;99.90
15556;DHT22;7879;48.660;9.116;2023-05-02T06:47:33;8.20;99.90
15556;DHT22;7879;48.660;9.116;2023-05-02T06:50:00;8.30;99.90
15556;DHT22;7879;48.660;9.116;2023-05-02T06:52:30;8.20;99.90
15556;DHT22;7879;48.660;9.116;2023-05-02T06:54:57;8.30;99.90
15556;DHT22;7879;48.660;9.116;2023-05-02T06:57:24;8.30;99.90
15556;DHT22;7879;48.660;9.116;2023-05-02T06:59:51;8.30;99.90
15556;DHT22;7879;48.660;9.116;2023-05-02T07:02:18;8.40;99.90
15556;DHT22;7879;48.660;9.116;2023-05-02T07:04:45;8.50;99.90
15556;DHT22;7879;48.660;9.116;2023-05-02T07:07:12;8.50;99.90
15556;DHT22;7879;48.660;9.116;2023-05-02T07:09:41;8.50;99.90
15556;DHT22;7879;48.660;9.116;2023-05-02T07:12:10;8.50;99.90
15556;DHT22;7879;48.660;9.116;2023-05-02T07:14:37;8.60;99.90
15556;DHT22;7879;48.660;9.116;2023-05-02T07:17:05;8.60;99.90
15556;DHT22;7879;48.660;9.116;2023-05-02T07:19:35;8.60;99.90
15556;DHT22;7879;48.660;9.116;2023-05-02T07:22:03;8.90;99.90
15556;DHT22;7879;48.660;9.116;2023-05-02T07:24:30;8.80;99.90
15556;DHT22;7879;48.660;9.116;2023-05-02T07:26:57;8.80;99.90
15556;DHT22;7879;48.660;9.116;2023-05-02T07:29:25;8.90;99.90
15556;DHT22;7879;48.660;9.116;2023-05-02T07:31:54;8.90;99.90
15556;DHT22;7879;48.660;9.116;2023-05-02T07:34:24;8.90;99.90
15556;DHT22;7879;48.660;9.116;2023-05-02T07:36:57;9.00;99.90
15556;DHT22;7879;48.660;9.116;2023-05-02T07:39:24;9.00;99.90
15556;DHT22;7879;48.660;9.116;2023-05-02T07:41:52;9.10;99.90
15556;DHT22;7879;48.660;9.116;2023-05-02T07:44:20;9.10;99.90
15556;DHT22;7879;48.660;9.116;2023-05-02T07:46:47;9.20;99.90
15556;DHT22;7879;48.660;9.116;2023-05-02T07:49:15;9.20;99.90
15556;DHT22;7879;48.660;9.116;2023-05-02T07:51:42;9.30;99.90
15556;DHT22;7879;48.660;9.116;2023-05-02T07:54:20;9.30;99.90
15556;DHT22;7879;48.660;9.116;2023-05-02T07:56:47;9.30;99.90
15556;DHT22;7879;48.660;9.116;2023-05-02T07:59:14;9.40;99.90
15556;DHT22;7879;48.660;9.116;2023-05-02T08:01:47;9.40;99.90
15556;DHT22;7879;48.660;9.116;2023-05-02T08:04:14;9.50;99.90
15556;DHT22;7879;48.660;9.116;2023-05-02T08:06:44;9.50;99.90
15556;DHT22;7879;48.660;9.116;2023-05-02T08:09:16;9.60;99.90
15556;DHT22;7879;48.660;9.116;2023-05-02T08:11:44;9.70;99.90
15556;DHT22;7879;48.660;9.116;2023-05-02T08:14:11;9.80;99.90
15556;DHT22;7879;48.660;9.116;2023-05-02T08:16:38;9.80;99.90
15556;DHT22;7879;48.660;9.116;2023-05-02T08:19:15;9.90;99.90
15556;DHT22;7879;48.660;9.116;2023-05-02T08:21:42;9.80;99.90
15556;DHT22;7879;48.660;9.116;2023-05-02T08:24:09;9.90;99.90
15556;DHT22;7879;48.660;9.116;2023-05-02T08:26:38;10.00;99.90
15556;DHT22;7879;48.660;9.116;2023-05-02T08:29:10;10.00;99.90
15556;DHT22;7879;48.660;9.116;2023-05-02T08:31:40;10.00;99.90
15556;DHT22;7879;48.660;9.116;2023-05-02T08:34:20;10.10;99.90
15556;DHT22;7879;48.660;9.116;2023-05-02T08:36:57;10.10;99.90
15556;DHT22;7879;48.660;9.116;2023-05-02T08:39:27;10.10;99.90
15556;DHT22;7879;48.660;9.116;2023-05-02T08:42:06;10.20;99.90
15556;DHT22;7879;48.660;9.116;2023-05-02T08:44:37;10.30;99.90
15556;DHT22;7879;48.660;9.116;2023-05-02T08:47:09;10.20;99.90
15556;DHT22;7879;48.660;9.116;2023-05-02T08:49:37;10.20;99.90
15556;DHT22;7879;48.660;9.116;2023-05-02T08:52:08;10.20;99.90
15556;DHT22;7879;48.660;9.116;2023-05-02T08:54:37;10.30;99.90
15556;DHT22;7879;48.660;9.116;2023-05-02T08:57:05;10.30;99.90
15556;DHT22;7879;48.660;9.116;2023-05-02T08:59:32;10.40;99.90
15556;DHT22;7879;48.660;9.116;2023-05-02T09:02:08;10.50;99.90
15556;DHT22;7879;48.660;9.116;2023-05-02T09:04:42;10.70;99.90
15556;DHT22;7879;48.660;9.116;2023-05-02T09:07:44;10.80;99.90
15556;DHT22;7879;48.660;9.116;2023-05-02T09:10:16;11.00;99.90
15556;DHT22;7879;48.660;9.116;2023-05-02T09:12:50;11.10;99.90
15556;DHT22;7879;48.660;9.116;2023-05-02T09:15:19;11.20;99.90
15556;DHT22;7879;48.660;9.116;2023-05-02T09:17:51;11.30;99.90
15556;DHT22;7879;48.660;9.116;2023-05-02T09:20:18;11.30;99.90
15556;DHT22;7879;48.660;9.116;2023-05-02T09:22:51;11.30;99.90
15556;DHT22;7879;48.660;9.116;2023-05-02T09:25:19;11.40;99.90
15556;DHT22;7879;48.660;9.116;2023-05-02T09:27:54;11.50;99.90
15556;DHT22;7879;48.660;9.116;2023-05-02T09:30:27;11.60;99.90
15556;DHT22;7879;48.660;9.116;2023-05-02T09:33:06;11.70;99.90
15556;DHT22;7879;48.660;9.116;2023-05-02T09:35:53;11.80;99.90
15556;DHT22;7879;48.660;9.116;2023-05-02T09:38:29;12.00;99.90
15556;DHT22;7879;48.660;9.116;2023-05-02T09:41:05;12.30;99.90
15556;DHT22;7879;48.660;9.116;2023-05-02T09:43:41;12.50;99.90
15556;DHT22;7879;48.660;9.116;2023-05-02T09:46:14;12.60;99.90
15556;DHT22;7879;48.660;9.116;2023-05-02T09:48:58;12.70;99.90
15556;DHT22;7879;48.660;9.116;2023-05-02T09:51:25;12.80;99.90
15556;DHT22;7879;48.660;9.116;2023-05-02T09:53:52;13.10;99.90
15556;DHT22;7879;48.660;9.116;2023-05-02T09:56:36;13.30;99.90
15556;DHT22;7879;48.660;9.116;2023-05-02T09:59:29;13.20;99.90
15556;DHT22;7879;48.660;9.116;2023-05-02T10:02:00;13.30;99.90
15556;DHT22;7879;48.660;9.116;2023-05-02T10:04:41;13.50;99.90
15556;DHT22;7879;48.660;9.116;2023-05-02T10:07:18;13.70;99.90
15556;DHT22;7879;48.660;9.116;2023-05-02T10:10:19;13.80;99.90
15556;DHT22;7879;48.660;9.116;2023-05-02T10:12:48;14.30;99.90
15556;DHT22;7879;48.660;9.116;2023-05-02T10:15:25;14.50;99.90
15556;DHT22;7879;48.660;9.116;2023-05-02T10:18:13;14.30;99.90
15556;DHT22;7879;48.660;9.116;2023-05-02T10:21:15;14.20;99.90
15556;DHT22;7879;48.660;9.116;2023-05-02T10:23:50;14.10;99.90
15556;DHT22;7879;48.660;9.116;2023-05-02T10:26:49;14.00;99.90
15556;DHT22;7879;48.660;9.116;2023-05-02T10:29:32;14.00;99.90
15556;DHT22;7879;48.660;9.116;2023-05-02T10:32:16;14.10;99.90
15556;DHT22;7879;48.660;9.116;2023-05-02T10:34:53;14.40;99.90
15556;DHT22;7879;48.660;9.116;2023-05-02T10:37:31;14.80;99.90
15556;DHT22;7879;48.660;9.116;2023-05-02T10:39:59;15.20;99.90
15556;DHT22;7879;48.660;9.116;2023-05-02T10:43:12;15.50;99.90
15556;DHT22;7879;48.660;9.116;2023-05-02T10:45:55;15.30;99.90
15556;DHT22;7879;48.660;9.116;2023-05-02T10:48:39;14.90;99.90
15556;DHT22;7879;48.660;9.116;2023-05-02T10:51:29;14.60;99.90
15556;DHT22;7879;48.660;9.116;2023-05-02T10:54:21;14.40;99.90
15556;DHT22;7879;48.660;9.116;2023-05-02T10:57:07;14.20;99.90
15556;DHT22;7879;48.660;9.116;2023-05-02T10:59:45;14.10;99.90
15556;DHT22;7879;48.660;9.116;2023-05-02T11:05:02;14.10;99.90
15556;DHT22;7879;48.660;9.116;2023-05-02T11:07:33;14.40;99.90
15556;DHT22;7879;48.660;9.116;2023-05-02T11:10:23;15.00;99.90
15556;DHT22;7879;48.660;9.116;2023-05-02T11:13:11;15.60;99.90
15556;DHT22;7879;48.660;9.116;2023-05-02T11:18:20;16.40;99.90
15556;DHT22;7879;48.660;9.116;2023-05-02T11:21:32;16.30;99.90
15556;DHT22;7879;48.660;9.116;2023-05-02T11:24:36;15.90;99.90
15556;DHT22;7879;48.660;9.116;2023-05-02T11:30:12;15.40;99.90
15556;DHT22;7879;48.660;9.116;2023-05-02T11:35:28;15.20;99.90
15556;DHT22;7879;48.660;9.116;2023-05-02T11:38:01;15.00;99.90
15556;DHT22;7879;48.660;9.116;2023-05-02T11:40:33;15.00;99.90
15556;DHT22;7879;48.660;9.116;2023-05-02T11:43:17;15.20;99.90
15556;DHT22;7879;48.660;9.116;2023-05-02T11:46:06;15.50;99.90
15556;DHT22;7879;48.660;9.116;2023-05-02T11:48:36;15.50;99.90
15556;DHT22;7879;48.660;9.116;2023-05-02T11:51:31;15.60;99.90
15556;DHT22;7879;48.660;9.116;2023-05-02T11:54:18;15.80;99.90
15556;DHT22;7879;48.660;9.116;2023-05-02T11:56:57;15.70;99.90
15556;DHT22;7879;48.660;9.116;2023-05-02T11:59:54;15.60;99.90
15556;DHT22;7879;48.660;9.116;2023-05-02T12:02:42;15.50;99.90
15556;DHT22;7879;48.660;9.116;2023-05-02T12:05:12;15.50;99.90
15556;DHT22;7879;48.660;9.116;2023-05-02T12:07:59;15.70;99.90
15556;DHT22;7879;48.660;9.116;2023-05-02T12:10:55;15.70;99.90
15556;DHT22;7879;48.660;9.116;2023-05-02T12:13:28;15.50;99.90
15556;DHT22;7879;48.660;9.116;2023-05-02T12:16:09;15.60;99.90
15556;DHT22;7879;48.660;9.116;2023-05-02T12:19:12;15.90;99.90
15556;DHT22;7879;48.660;9.116;2023-05-02T12:21:55;16.30;99.90
15556;DHT22;7879;48.660;9.116;2023-05-02T12:24:48;16.50;99.90
15556;DHT22;7879;48.660;9.116;2023-05-02T12:31:41;16.30;99.90
15556;DHT22;7879;48.660;9.116;2023-05-02T12:34:42;16.60;99.90
15556;DHT22;7879;48.660;9.116;2023-05-02T12:37:21;16.70;99.90
15556;DHT22;7879;48.660;9.116;2023-05-02T12:40:19;16.70;99.90
15556;DHT22;7879;48.660;9.116;2023-05-02T12:43:06;16.50;99.90
15556;DHT22;7879;48.660;9.116;2023-05-02T12:45:44;16.20;99.90
15556;DHT22;7879;48.660;9.116;2023-05-02T12:48:25;16.00;99.90
15556;DHT22;7879;48.660;9.116;2023-05-02T12:50:53;15.80;99.90
15556;DHT22;7879;48.660;9.116;2023-05-02T12:53:40;15.70;99.90
15556;DHT22;7879;48.660;9.116;2023-05-02T12:56:13;15.80;99.90
15556;DHT22;7879;48.660;9.116;2023-05-02T12:59:10;15.70;99.90
15556;DHT22;7879;48.660;9.116;2023-05-02T13:02:06;15.70;99.90
15556;DHT22;7879;48.660;9.116;2023-05-02T13:04:50;15.60;99.90
15556;DHT22;7879;48.660;9.116;2023-05-02T13:07:17;15.60;99.90
15556;DHT22;7879;48.660;9.116;2023-05-02T13:09:51;15.60;99.90
15556;DHT22;7879;48.660;9.116;2023-05-02T13:12:20;15.70;99.90
15556;DHT22;7879;48.660;9.116;2023-05-02T13:14:47;15.60;99.90
15556;DHT22;7879;48.660;9.116;2023-05-02T13:17:14;15.60;99.90
15556;DHT22;7879;48.660;9.116;2023-05-02T13:19:50;15.50;99.90
15556;DHT22;7879;48.660;9.116;2023-05-02T13:22:28;15.50;99.90
15556;DHT22;7879;48.660;9.116;2023-05-02T13:25:09;15.50;99.90
15556;DHT22;7879;48.660;9.116;2023-05-02T13:27:37;15.60;99.90
15556;DHT22;7879;48.660;9.116;2023-05-02T13:30:15;15.60;99.90
15556;DHT22;7879;48.660;9.116;2023-05-02T13:32:48;15.70;99.90
15556;DHT22;7879;48.660;9.116;2023-05-02T13:35:20;16.00;99.90
15556;DHT22;7879;48.660;9.116;2023-05-02T13:37:50;15.90;99.90
15556;DHT22;7879;48.660;9.116;2023-05-02T13:40:43;15.90;99.90
15556;DHT22;7879;48.660;9.116;2023-05-02T13:43:31;15.90;99.90
15556;DHT22;7879;48.660;9.116;2023-05-02T13:46:06;15.90;99.90
15556;DHT22;7879;48.660;9.116;2023-05-02T13:48:33;15.90;99.90
15556;DHT22;7879;48.660;9.116;2023-05-02T13:51:13;15.80;99.90
15556;DHT22;7879;48.660;9.116;2023-05-02T13:53:49;15.70;99.90
15556;DHT22;7879;48.660;9.116;2023-05-02T13:56:19;15.70;99.90
15556;DHT22;7879;48.660;9.116;2023-05-02T13:59:12;15.70;99.90
15556;DHT22;7879;48.660;9.116;2023-05-02T14:01:57;15.70;99.90
15556;DHT22;7879;48.660;9.116;2023-05-02T14:04:45;15.70;99.90
15556;DHT22;7879;48.660;9.116;2023-05-02T14:07:12;15.80;99.90
15556;DHT22;7879;48.660;9.116;2023-05-02T14:10:10;15.70;99.90
15556;DHT22;7879;48.660;9.116;2023-05-02T14:13:18;15.70;99.90
15556;DHT22;7879;48.660;9.116;2023-05-02T14:16:12;15.80;99.90
15556;DHT22;7879;48.660;9.116;2023-05-02T14:18:41;15.80;99.90
15556;DHT22;7879;48.660;9.116;2023-05-02T14:21:12;15.90;99.90
15556;DHT22;7879;48.660;9.116;2023-05-02T14:23:39;16.00;99.90
15556;DHT22;7879;48.660;9.116;2023-05-02T14:26:08;15.90;99.90
15556;DHT22;7879;48.660;9.116;2023-05-02T14:31:51;15.90;99.90
15556;DHT22;7879;48.660;9.116;2023-05-02T14:37:25;16.10;99.90
15556;DHT22;7879;48.660;9.116;2023-05-02T14:40:08;16.10;99.90
15556;DHT22;7879;48.660;9.116;2023-05-02T14:43:04;16.00;99.90
15556;DHT22;7879;48.660;9.116;2023-05-02T14:45:42;15.90;99.90
15556;DHT22;7879;48.660;9.116;2023-05-02T14:48:31;16.00;99.90
15556;DHT22;7879;48.660;9.116;2023-05-02T14:51:13;16.10;99.90
15556;DHT22;7879;48.660;9.116;2023-05-02T14:54:02;16.10;99.90
15556;DHT22;7879;48.660;9.116;2023-05-02T14:56:40;16.20;99.90
15556;DHT22;7879;48.660;9.116;2023-05-02T14:59:10;16.10;99.90
15556;DHT22;7879;48.660;9.116;2023-05-02T15:01:38;16.00;99.90
15556;DHT22;7879;48.660;9.116;2023-05-02T15:04:11;16.00;99.90
15556;DHT22;7879;48.660;9.116;2023-05-02T15:06:53;15.80;99.90
15556;DHT22;7879;48.660;9.116;2023-05-02T15:09:22;15.70;99.90
15556;DHT22;7879;48.660;9.116;2023-05-02T15:11:54;15.70;99.90
15556;DHT22;7879;48.660;9.116;2023-05-02T15:14:22;15.60;99.90
15556;DHT22;7879;48.660;9.116;2023-05-02T15:16:49;15.70;99.90
15556;DHT22;7879;48.660;9.116;2023-05-02T15:19:16;15.60;99.90
15556;DHT22;7879;48.660;9.116;2023-05-02T15:21:43;15.50;99.90
15556;DHT22;7879;48.660;9.116;2023-05-02T15:24:10;15.60;99.90
15556;DHT22;7879;48.660;9.116;2023-05-02T15:26:37;15.70;99.90
15556;DHT22;7879;48.660;9.116;2023-05-02T15:29:06;15.80;99.90
15556;DHT22;7879;48.660;9.116;2023-05-02T15:31:33;15.70;99.90
15556;DHT22;7879;48.660;9.116;2023-05-02T15:34:00;15.70;99.90
15556;DHT22;7879;48.660;9.116;2023-05-02T15:36:28;15.80;99.90
15556;DHT22;7879;48.660;9.116;2023-05-02T15:38:56;15.80;99.90
15556;DHT22;7879;48.660;9.116;2023-05-02T15:41:24;15.70;99.90
15556;DHT22;7879;48.660;9.116;2023-05-02T15:43:54;15.70;99.90
15556;DHT22;7879;48.660;9.116;2023-05-02T15:46:20;15.70;99.90
15556;DHT22;7879;48.660;9.116;2023-05-02T15:48:47;15.60;99.90
15556;DHT22;7879;48.660;9.116;2023-05-02T15:51:15;15.70;99.90
15556;DHT22;7879;48.660;9.116;2023-05-02T15:53:42;15.70;99.90
15556;DHT22;7879;48.660;9.116;2023-05-02T15:56:10;15.70;99.90
15556;DHT22;7879;48.660;9.116;2023-05-02T15:58:38;15.70;99.90
15556;DHT22;7879;48.660;9.116;2023-05-02T16:01:08;15.70;99.90
15556;DHT22;7879;48.660;9.116;2023-05-02T16:03:35;15.80;99.90
15556;DHT22;7879;48.660;9.116;2023-05-02T16:06:02;15.70;99.90
15556;DHT22;7879;48.660;9.116;2023-05-02T16:08:32;15.70;99.90
15556;DHT22;7879;48.660;9.116;2023-05-02T16:10:58;15.80;99.90
15556;DHT22;7879;48.660;9.116;2023-05-02T16:13:27;15.70;99.90
15556;DHT22;7879;48.660;9.116;2023-05-02T16:15:54;15.70;99.90
15556;DHT22;7879;48.660;9.116;2023-05-02T16:18:21;15.70;99.90
15556;DHT22;7879;48.660;9.116;2023-05-02T16:20:56;15.90;99.90
15556;DHT22;7879;48.660;9.116;2023-05-02T16:23:24;15.60;99.90
15556;DHT22;7879;48.660;9.116;2023-05-02T16:25:58;15.80;99.90
15556;DHT22;7879;48.660;9.116;2023-05-02T16:28:25;15.70;99.90
15556;DHT22;7879;48.660;9.116;2023-05-02T16:30:52;15.80;99.90
15556;DHT22;7879;48.660;9.116;2023-05-02T16:33:19;15.70;99.90
15556;DHT22;7879;48.660;9.116;2023-05-02T16:35:47;15.70;99.90
15556;DHT22;7879;48.660;9.116;2023-05-02T16:38:14;15.60;99.90
15556;DHT22;7879;48.660;9.116;2023-05-02T16:40:41;15.60;99.90
15556;DHT22;7879;48.660;9.116;2023-05-02T16:43:08;15.60;99.90
15556;DHT22;7879;48.660;9.116;2023-05-02T16:45:35;15.60;99.90
15556;DHT22;7879;48.660;9.116;2023-05-02T16:48:02;15.60;99.90
15556;DHT22;7879;48.660;9.116;2023-05-02T16:50:30;15.60;99.90
15556;DHT22;7879;48.660;9.116;2023-05-02T16:52:57;15.60;99.90
15556;DHT22;7879;48.660;9.116;2023-05-02T16:55:24;15.60;99.90
15556;DHT22;7879;48.660;9.116;2023-05-02T16:57:53;15.60;99.90
15556;DHT22;7879;48.660;9.116;2023-05-02T17:00:20;15.50;99.90
15556;DHT22;7879;48.660;9.116;2023-05-02T17:02:47;15.50;99.90
15556;DHT22;7879;48.660;9.116;2023-05-02T17:05:14;15.40;99.90
15556;DHT22;7879;48.660;9.116;2023-05-02T17:07:42;15.50;99.90